Queensville, Indiana
Current Conditions -  °F | °C
As of 4:53 PM on Tuesday 21 Oct 2014 (Local Time) from KGEZ Reporting Station
Overcast Overcast  
Wind Chill: 57°   Ceiling: 5000
Heat Index: 57°   Visibility: 10mi
Dew Point: 41°   Wind: 16mph
Humidity: 55%   Direction: 350°N
Pressure: 30.09"   Gusts: 21mph
Location:  38.9859°N, 85.6189°W
Report Text: KGEZ 212053Z AUTO 35014G18KT 10SM BKN050 OVC060 14/05 A3009 RMK AO2 SLP190 T01390050 53008
Loading
Personal Weather Stations






























Interactive Weather Map
Tropical Storm Tracking
New forecast layout! Learn more

10-Day Weather Forecast

Advertisements
Track Severe Weather on mobile